Wind From: 10-12-2017 19:04 Until: 11-12-2017 16:00 warning for: Wind Level: Orange info button

Power and phone distribution networks may be disrupted for relatively long periods., Roofs and chimneys can be damaged. , Tree branches may break. , Vehicles can be deported. , Traffic may be disrupted, particularly on secondary roads in forest areas. Limit your trips. , Limit your speed in highway driving, especially if you drive a vehicle or hitch sensitive to wind. , Do not go for walks in forests or along the coast., In town, be vigilant against possible falling objects., Do not work on roofs and do not touch any electrical line fallen on the ground., Store or secure sensitive objects to wind or likely to be damaged., Always install power generators outside buildings. 


Meteo18 Weather Cam more information Meteo18 Weather Cam


Thunder radar more information blitzortung!


Rain radar more information rain snow radar


Visit our other weather sites:

Template documentation
and downloads

And another site



Weather Underground History page Text

Daily Summary for August 12, 2016 Units:  Metric    English   Both
« Previous Day
Next Day »
Daily Weekly Monthly Yearly Custom
  High: Low: Average:
Temperature: 27.8 °C 11.2 °C 19.8 °C
Dew Point: 14.8 °C 8.5 °C 12.1 °C
Humidity: 85 % 42 % 63 %
Wind Speed: 14.5 km/h 0.0 km/h 1.9 km/h
Wind Gust: 19.3 km/h - -
Wind:- - SSE
Pressure: 1027.0 hPa 1023.9 hPa -
Precipitation: 0.0 mm    
Historical Graphs
 
 
Tabular Data for August 12, 2016
Time Temperature Dew Point Pressure Wind Wind Speed Wind Gust Humidity Rainfall Rate (Hourly)
00:02 15.6 °C 10.8 °C 1024.9 hPa Calm     73 % 0.0 mm
00:07 15.6 °C 11.0 °C 1024.9 hPa Calm     74 % 0.0 mm
00:12 15.6 °C 11.0 °C 1024.9 hPa Calm     74 % 0.0 mm
00:17 15.6 °C 11.0 °C 1024.9 hPa Calm     74 % 0.0 mm
00:22 15.3 °C 10.7 °C 1024.9 hPa Calm     74 % 0.0 mm
00:32 15.0 °C 10.6 °C 1024.9 hPa Calm     75 % 0.0 mm
00:42 14.7 °C 10.3 °C 1025.3 hPa Calm     75 % 0.0 mm
00:47 14.6 °C 10.4 °C 1025.3 hPa Calm     76 % 0.0 mm
00:52 14.4 °C 10.4 °C 1025.3 hPa Calm     77 % 0.0 mm
00:57 14.3 °C 10.3 °C 1025.3 hPa Calm     77 % 0.0 mm
01:02 14.2 °C 10.4 °C 1025.3 hPa Calm     78 % 0.0 mm
01:12 14.1 °C 10.3 °C 1025.3 hPa Calm     78 % 0.0 mm
01:22 14.0 °C 10.4 °C 1025.3 hPa Calm     79 % 0.0 mm
01:27 13.9 °C 10.3 °C 1024.9 hPa Calm     79 % 0.0 mm
01:32 13.9 °C 10.5 °C 1024.9 hPa Calm     80 % 0.0 mm
01:37 14.0 °C 10.4 °C 1024.9 hPa Calm     79 % 0.0 mm
01:42 13.9 °C 10.3 °C 1024.9 hPa Calm     79 % 0.0 mm
01:47 13.8 °C 10.4 °C 1024.9 hPa Calm     80 % 0.0 mm
01:52 13.8 °C 10.6 °C 1024.9 hPa Calm     81 % 0.0 mm
01:57 13.7 °C 10.7 °C 1024.9 hPa Calm     82 % 0.0 mm
02:02 13.6 °C 10.6 °C 1024.9 hPa Calm     82 % 0.0 mm
02:07 13.6 °C 10.4 °C 1024.9 hPa Calm     81 % 0.0 mm
02:12 13.8 °C 10.6 °C 1024.9 hPa Calm     81 % 0.0 mm
02:17 13.8 °C 10.4 °C 1024.9 hPa Calm     80 % 0.0 mm
02:22 13.8 °C 10.6 °C 1024.9 hPa Calm     81 % 0.0 mm
02:32 13.9 °C 10.5 °C 1024.9 hPa Calm     80 % 0.0 mm
02:37 13.6 °C 10.4 °C 1024.9 hPa Calm     81 % 0.0 mm
02:42 13.3 °C 10.3 °C 1024.9 hPa Calm     82 % 0.0 mm
02:47 13.1 °C 10.5 °C 1024.9 hPa Calm     84 % 0.0 mm
02:52 13.1 °C 10.6 °C 1024.9 hPa Calm     85 % 0.0 mm
03:02 13.0 °C 10.4 °C 1024.9 hPa Calm     84 % 0.0 mm
03:12 12.9 °C 10.3 °C 1024.9 hPa Calm     84 % 0.0 mm
03:17 12.8 °C 10.2 °C 1024.9 hPa Calm     84 % 0.0 mm
03:22 12.7 °C 10.2 °C 1024.9 hPa Calm     85 % 0.0 mm
03:32 12.8 °C 10.2 °C 1024.9 hPa Calm     84 % 0.0 mm
03:37 12.7 °C 10.2 °C 1024.9 hPa Calm     85 % 0.0 mm
03:47 12.2 °C 9.6 °C 1024.9 hPa Calm   1.6 km/h 84 % 0.0 mm
03:57 12.4 °C 9.4 °C 1024.9 hPa Calm   3.2 km/h 82 % 0.0 mm
04:02 12.5 °C 9.5 °C 1024.9 hPa Calm   3.2 km/h 82 % 0.0 mm
04:12 12.9 °C 9.5 °C 1024.9 hPa Calm   3.2 km/h 80 % 0.0 mm
04:17 12.8 °C 9.4 °C 1024.9 hPa Calm   3.2 km/h 80 % 0.0 mm
04:22 12.7 °C 9.3 °C 1024.9 hPa Calm   3.2 km/h 80 % 0.0 mm
04:27 12.7 °C 9.3 °C 1024.9 hPa Calm   1.6 km/h 80 % 0.0 mm
04:32 12.7 °C 9.0 °C 1024.9 hPa Calm   1.6 km/h 78 % 0.0 mm
04:37 12.5 °C 9.0 °C 1025.3 hPa Calm     79 % 0.0 mm
04:42 12.1 °C 8.9 °C 1025.3 hPa Calm     81 % 0.0 mm
04:47 12.1 °C 9.5 °C 1025.3 hPa Calm     84 % 0.0 mm
04:52 12.1 °C 9.5 °C 1025.3 hPa Calm     84 % 0.0 mm
04:57 12.3 °C 9.5 °C 1025.3 hPa Calm   1.6 km/h 83 % 0.0 mm
05:02 12.4 °C 9.2 °C 1025.3 hPa Calm   1.6 km/h 81 % 0.0 mm
05:12 12.1 °C 8.8 °C 1025.3 hPa Calm   1.6 km/h 80 % 0.0 mm
05:17 11.8 °C 8.8 °C 1025.3 hPa Calm     82 % 0.0 mm
05:27 11.6 °C 8.6 °C 1025.3 hPa Calm     82 % 0.0 mm
05:32 11.4 °C 8.6 °C 1025.3 hPa Calm     83 % 0.0 mm
05:37 11.2 °C 8.6 °C 1025.3 hPa Calm     84 % 0.0 mm
05:42 11.2 °C 8.8 °C 1025.3 hPa Calm     85 % 0.0 mm
05:47 11.2 °C 8.8 °C 1025.3 hPa Calm     85 % 0.0 mm
05:52 11.3 °C 8.9 °C 1025.3 hPa Calm     85 % 0.0 mm
05:57 11.4 °C 8.8 °C 1025.6 hPa Calm   1.6 km/h 84 % 0.0 mm
06:02 11.7 °C 8.7 °C 1025.6 hPa Calm   1.6 km/h 82 % 0.0 mm
06:07 11.8 °C 8.5 °C 1025.6 hPa Calm   1.6 km/h 80 % 0.0 mm
06:12 12.2 °C 8.7 °C 1025.6 hPa NNW 3.2 km/h 3.2 km/h 79 % 0.0 mm
06:17 12.7 °C 9.0 °C 1025.6 hPa Calm   1.6 km/h 78 % 0.0 mm
06:22 12.8 °C 8.7 °C 1025.6 hPa Calm   4.8 km/h 76 % 0.0 mm
06:32 12.7 °C 8.6 °C 1026.0 hPa Calm   4.8 km/h 76 % 0.0 mm
06:42 12.7 °C 8.8 °C 1026.0 hPa Calm   1.6 km/h 77 % 0.0 mm
06:52 12.9 °C 8.8 °C 1026.0 hPa NW 3.2 km/h 3.2 km/h 76 % 0.0 mm
07:02 13.0 °C 8.9 °C 1026.0 hPa Calm   4.8 km/h 76 % 0.0 mm
07:07 13.1 °C 9.0 °C 1026.0 hPa NNW 1.6 km/h 4.8 km/h 76 % 0.0 mm
07:12 13.3 °C 9.0 °C 1026.0 hPa Calm   4.8 km/h 75 % 0.0 mm
07:17 13.4 °C 8.9 °C 1026.0 hPa Calm   3.2 km/h 74 % 0.0 mm
07:22 13.4 °C 8.9 °C 1026.0 hPa Calm   3.2 km/h 74 % 0.0 mm
07:27 13.9 °C 9.1 °C 1026.0 hPa Calm     73 % 0.0 mm
07:37 14.7 °C 9.3 °C 1026.3 hPa Calm     70 % 0.0 mm
07:42 15.2 °C 9.5 °C 1026.3 hPa Calm     69 % 0.0 mm
07:47 15.4 °C 9.3 °C 1026.3 hPa Calm     67 % 0.0 mm
07:57 15.9 °C 9.8 °C 1026.3 hPa Calm     67 % 0.0 mm
08:02 15.9 °C 9.8 °C 1026.3 hPa Calm     67 % 0.0 mm
08:07 16.3 °C 10.2 °C 1026.3 hPa Calm     67 % 0.0 mm
08:22 15.7 °C 9.8 °C 1026.3 hPa Calm   3.2 km/h 68 % 0.0 mm
08:27 15.9 °C 10.0 °C 1026.3 hPa Calm   3.2 km/h 68 % 0.0 mm
08:32 16.3 °C 10.2 °C 1026.3 hPa Calm   3.2 km/h 67 % 0.0 mm
08:37 16.6 °C 10.2 °C 1026.3 hPa Calm     66 % 0.0 mm
08:42 16.7 °C 10.3 °C 1026.6 hPa Calm     66 % 0.0 mm
08:47 17.1 °C 10.5 °C 1026.6 hPa Calm     65 % 0.0 mm
08:52 17.1 °C 10.2 °C 1026.6 hPa Calm     64 % 0.0 mm
08:57 17.5 °C 10.6 °C 1026.6 hPa Calm     64 % 0.0 mm
09:02 17.7 °C 10.8 °C 1026.6 hPa East 3.2 km/h   64 % 0.0 mm
09:07 17.7 °C 11.0 °C 1026.6 hPa Calm   4.8 km/h 65 % 0.0 mm
09:17 17.8 °C 11.1 °C 1026.6 hPa Calm   4.8 km/h 65 % 0.0 mm
09:22 18.4 °C 11.5 °C 1026.6 hPa ENE 1.6 km/h 4.8 km/h 64 % 0.0 mm
09:32 18.5 °C 11.3 °C 1026.6 hPa SSE 1.6 km/h 4.8 km/h 63 % 0.0 mm
09:42 18.7 °C 11.8 °C 1027.0 hPa Calm   6.4 km/h 64 % 0.0 mm
09:47 18.9 °C 11.7 °C 1026.6 hPa SE 1.6 km/h 6.4 km/h 63 % 0.0 mm
09:52 18.7 °C 11.5 °C 1026.6 hPa East 4.8 km/h 6.4 km/h 63 % 0.0 mm
09:57 18.9 °C 11.9 °C 1027.0 hPa Calm   6.4 km/h 64 % 0.0 mm
10:12 19.4 °C 12.2 °C 1026.6 hPa SE 1.6 km/h 6.4 km/h 63 % 0.0 mm
10:22 19.3 °C 11.8 °C 1026.6 hPa ESE 1.6 km/h 8.0 km/h 62 % 0.0 mm
10:27 19.4 °C 11.9 °C 1026.6 hPa East 1.6 km/h 8.0 km/h 62 % 0.0 mm
10:32 19.5 °C 12.0 °C 1026.6 hPa East 1.6 km/h 4.8 km/h 62 % 0.0 mm
10:37 19.8 °C 12.3 °C 1026.6 hPa ENE 4.8 km/h 4.8 km/h 62 % 0.0 mm
10:42 19.9 °C 11.9 °C 1026.6 hPa Calm   4.8 km/h 60 % 0.0 mm
10:47 20.3 °C 12.0 °C 1026.6 hPa Calm   4.8 km/h 59 % 0.0 mm
10:52 20.2 °C 11.7 °C 1026.6 hPa West 3.2 km/h 4.8 km/h 58 % 0.0 mm
10:57 20.2 °C 11.9 °C 1026.6 hPa SE 3.2 km/h 4.8 km/h 59 % 0.0 mm
11:02 20.4 °C 11.9 °C 1026.6 hPa South 3.2 km/h 6.4 km/h 58 % 0.0 mm
11:07 20.7 °C 12.1 °C 1026.6 hPa SE 1.6 km/h 6.4 km/h 58 % 0.0 mm
11:12 20.8 °C 12.0 °C 1026.6 hPa East 4.8 km/h 6.4 km/h 57 % 0.0 mm
11:17 20.7 °C 11.9 °C 1026.6 hPa NE 8.0 km/h 8.0 km/h 57 % 0.0 mm
11:22 20.7 °C 11.9 °C 1026.6 hPa SSW 6.4 km/h 8.0 km/h 57 % 0.0 mm
11:27 20.5 °C 11.7 °C 1026.6 hPa SSW 3.2 km/h 8.0 km/h 57 % 0.0 mm
11:32 20.8 °C 12.2 °C 1026.6 hPa ESE 3.2 km/h 8.0 km/h 58 % 0.0 mm
11:37 21.0 °C 11.9 °C 1026.6 hPa Calm   8.0 km/h 56 % 0.0 mm
11:42 21.1 °C 12.0 °C 1026.6 hPa SE 3.2 km/h 6.4 km/h 56 % 0.0 mm
11:47 21.4 °C 12.3 °C 1026.6 hPa ENE 4.8 km/h 6.4 km/h 56 % 0.0 mm
11:52 21.8 °C 12.1 °C 1026.6 hPa East 1.6 km/h 6.4 km/h 54 % 0.0 mm
12:02 21.3 °C 12.4 °C 1026.6 hPa Calm   9.7 km/h 57 % 0.0 mm
12:12 21.6 °C 12.4 °C 1026.3 hPa Calm   12.9 km/h 56 % 0.0 mm
12:17 22.1 °C 12.4 °C 1026.3 hPa West 1.6 km/h 12.9 km/h 54 % 0.0 mm
12:22 22.4 °C 12.6 °C 1026.3 hPa SSE 3.2 km/h 12.9 km/h 54 % 0.0 mm
12:32 22.8 °C 12.4 °C 1026.3 hPa SSW 6.4 km/h 8.0 km/h 52 % 0.0 mm
12:42 23.1 °C 12.7 °C 1026.3 hPa SE 6.4 km/h 9.7 km/h 52 % 0.0 mm
12:47 22.9 °C 12.5 °C 1026.3 hPa SW 3.2 km/h 9.7 km/h 52 % 0.0 mm
12:52 23.1 °C 12.7 °C 1026.3 hPa WSW 3.2 km/h 8.0 km/h 52 % 0.0 mm
12:57 23.3 °C 12.9 °C 1026.3 hPa ENE 4.8 km/h 8.0 km/h 52 % 0.0 mm
13:02 23.6 °C 13.2 °C 1026.0 hPa Calm   6.4 km/h 52 % 0.0 mm
13:07 23.8 °C 12.8 °C 1026.0 hPa Calm   8.0 km/h 50 % 0.0 mm
13:12 24.0 °C 12.9 °C 1026.0 hPa SSE 4.8 km/h 8.0 km/h 50 % 0.0 mm
13:17 23.8 °C 12.8 °C 1026.0 hPa West 3.2 km/h 11.3 km/h 50 % 0.0 mm
13:22 23.8 °C 12.8 °C 1026.0 hPa NNW 3.2 km/h 11.3 km/h 50 % 0.0 mm
13:32 23.7 °C 13.3 °C 1026.0 hPa Calm   8.0 km/h 52 % 0.0 mm
13:42 24.7 °C 13.3 °C 1026.0 hPa Calm   8.0 km/h 49 % 0.0 mm
13:47 25.2 °C 13.4 °C 1026.0 hPa SE 3.2 km/h 9.7 km/h 48 % 0.0 mm
13:52 25.1 °C 13.0 °C 1026.0 hPa ENE 6.4 km/h 11.3 km/h 47 % 0.0 mm
13:57 24.7 °C 13.0 °C 1026.0 hPa ENE 8.0 km/h 11.3 km/h 48 % 0.0 mm
14:02 24.3 °C 13.2 °C 1026.0 hPa ENE 3.2 km/h 12.9 km/h 50 % 0.0 mm
14:12 24.8 °C 13.4 °C 1025.6 hPa Calm   12.9 km/h 49 % 0.0 mm
14:17 25.3 °C 13.5 °C 1025.6 hPa Calm   8.0 km/h 48 % 0.0 mm
14:22 25.3 °C 13.2 °C 1025.6 hPa NNE 9.7 km/h 9.7 km/h 47 % 0.0 mm
14:32 24.8 °C 13.0 °C 1025.3 hPa North 1.6 km/h 16.1 km/h 48 % 0.0 mm
14:37 25.0 °C 13.2 °C 1025.3 hPa NNE 6.4 km/h 16.1 km/h 48 % 0.0 mm
14:42 25.2 °C 13.7 °C 1025.3 hPa ENE 4.8 km/h 16.1 km/h 49 % 0.0 mm
14:52 25.4 °C 13.6 °C 1025.3 hPa NW 9.7 km/h 11.3 km/h 48 % 0.0 mm
15:02 25.9 °C 13.4 °C 1025.3 hPa SW 8.0 km/h 14.5 km/h 46 % 0.0 mm
15:07 25.6 °C 13.1 °C 1025.3 hPa WSW 3.2 km/h 14.5 km/h 46 % 0.0 mm
15:12 25.6 °C 13.5 °C 1025.3 hPa NE 6.4 km/h 8.0 km/h 47 % 0.0 mm
15:22 26.1 °C 13.6 °C 1025.3 hPa NNW 8.0 km/h 9.7 km/h 46 % 0.0 mm
15:27 26.3 °C 13.8 °C 1025.3 hPa NW 8.0 km/h 11.3 km/h 46 % 0.0 mm
15:32 26.2 °C 13.7 °C 1025.3 hPa NNW 6.4 km/h 11.3 km/h 46 % 0.0 mm
15:42 26.4 °C 13.5 °C 1024.9 hPa Calm   12.9 km/h 45 % 0.0 mm
15:47 26.6 °C 13.7 °C 1025.3 hPa Calm   12.9 km/h 45 % 0.0 mm
15:57 26.8 °C 13.9 °C 1024.9 hPa SW 3.2 km/h 8.0 km/h 45 % 0.0 mm
16:02 26.7 °C 13.8 °C 1024.9 hPa WSW 4.8 km/h 9.7 km/h 45 % 0.0 mm
16:17 26.9 °C 13.6 °C 1024.9 hPa North 14.5 km/h 14.5 km/h 44 % 0.0 mm
16:22 26.8 °C 13.9 °C 1024.9 hPa North 1.6 km/h 14.5 km/h 45 % 0.0 mm
16:27 27.1 °C 13.8 °C 1024.9 hPa NNW 4.8 km/h 14.5 km/h 44 % 0.0 mm
16:32 26.9 °C 14.0 °C 1024.9 hPa NNW 6.4 km/h 14.5 km/h 45 % 0.0 mm
16:37 27.0 °C 13.7 °C 1024.9 hPa West 3.2 km/h 9.7 km/h 44 % 0.0 mm
16:42 27.1 °C 13.8 °C 1024.9 hPa NNW 6.4 km/h 9.7 km/h 44 % 0.0 mm
16:47 26.8 °C 13.9 °C 1024.9 hPa WNW 8.0 km/h 12.9 km/h 45 % 0.0 mm
16:52 26.6 °C 13.7 °C 1024.9 hPa West 3.2 km/h 12.9 km/h 45 % 0.0 mm
16:57 26.8 °C 13.9 °C 1024.9 hPa East 1.6 km/h 12.9 km/h 45 % 0.0 mm
17:02 26.9 °C 13.6 °C 1024.9 hPa NNE 11.3 km/h 11.3 km/h 44 % 0.0 mm
17:12 26.6 °C 13.7 °C 1024.6 hPa ENE 1.6 km/h 14.5 km/h 45 % 0.0 mm
17:17 26.8 °C 13.9 °C 1024.6 hPa NW 3.2 km/h 14.5 km/h 45 % 0.0 mm
17:27 26.8 °C 13.9 °C 1024.6 hPa NW 1.6 km/h 9.7 km/h 45 % 0.0 mm
17:32 26.8 °C 13.9 °C 1024.6 hPa ENE 3.2 km/h 9.7 km/h 45 % 0.0 mm
17:42 26.9 °C 14.0 °C 1024.6 hPa North 8.0 km/h 12.9 km/h 45 % 0.0 mm
17:47 27.3 °C 14.0 °C 1024.6 hPa NNW 3.2 km/h 12.9 km/h 44 % 0.0 mm
17:52 27.4 °C 13.7 °C 1024.6 hPa NE 6.4 km/h 12.9 km/h 43 % 0.0 mm
17:57 27.4 °C 13.7 °C 1024.6 hPa NNE 3.2 km/h 11.3 km/h 43 % 0.0 mm
18:02 27.6 °C 13.5 °C 1024.6 hPa Calm   9.7 km/h 42 % 0.0 mm
18:12 27.8 °C 13.7 °C 1024.6 hPa WNW 6.4 km/h 9.7 km/h 42 % 0.0 mm
18:17 27.7 °C 13.6 °C 1024.6 hPa NW 4.8 km/h 19.3 km/h 42 % 0.0 mm
18:22 27.6 °C 13.9 °C 1024.3 hPa ENE 3.2 km/h 19.3 km/h 43 % 0.0 mm
18:27 27.6 °C 13.9 °C 1024.3 hPa NE 3.2 km/h 11.3 km/h 43 % 0.0 mm
18:32 27.5 °C 14.2 °C 1024.3 hPa NW 3.2 km/h 11.3 km/h 44 % 0.0 mm
18:37 27.4 °C 14.1 °C 1024.3 hPa NNE 8.0 km/h 14.5 km/h 44 % 0.0 mm
18:42 27.2 °C 13.9 °C 1024.3 hPa NNW 1.6 km/h 14.5 km/h 44 % 0.0 mm
18:52 27.7 °C 14.3 °C 1024.3 hPa Calm   12.9 km/h 44 % 0.0 mm
18:57 27.4 °C 14.1 °C 1024.3 hPa NE 3.2 km/h 12.9 km/h 44 % 0.0 mm
19:02 27.2 °C 13.9 °C 1024.3 hPa NNE 1.6 km/h 14.5 km/h 44 % 0.0 mm
19:12 26.9 °C 14.3 °C 1024.3 hPa NE 9.7 km/h 14.5 km/h 46 % 0.0 mm
19:17 26.7 °C 14.5 °C 1024.3 hPa NE 6.4 km/h 14.5 km/h 47 % 0.0 mm
19:22 26.7 °C 14.5 °C 1024.3 hPa NNE 9.7 km/h 14.5 km/h 47 % 0.0 mm
19:27 26.6 °C 14.4 °C 1024.3 hPa NNE 8.0 km/h 14.5 km/h 47 % 0.0 mm
19:32 26.5 °C 14.6 °C 1024.3 hPa NW 3.2 km/h 16.1 km/h 48 % 0.0 mm
19:37 26.5 °C 14.6 °C 1024.3 hPa ENE 4.8 km/h 16.1 km/h 48 % 0.0 mm
19:42 26.4 °C 14.5 °C 1024.3 hPa ENE 4.8 km/h 16.1 km/h 48 % 0.0 mm
19:52 26.2 °C 14.6 °C 1024.3 hPa NE 4.8 km/h 11.3 km/h 49 % 0.0 mm
19:57 26.1 °C 14.5 °C 1024.3 hPa ENE 4.8 km/h 12.9 km/h 49 % 0.0 mm
20:02 26.0 °C 14.8 °C 1024.3 hPa ENE 3.2 km/h 12.9 km/h 50 % 0.0 mm
20:12 25.8 °C 14.6 °C 1024.3 hPa NNE 4.8 km/h 12.9 km/h 50 % 0.0 mm
20:17 25.7 °C 14.5 °C 1023.9 hPa NE 4.8 km/h 12.9 km/h 50 % 0.0 mm
20:22 25.5 °C 14.6 °C 1023.9 hPa NE 6.4 km/h 12.9 km/h 51 % 0.0 mm
20:27 25.4 °C 14.5 °C 1023.9 hPa NE 8.0 km/h 12.9 km/h 51 % 0.0 mm
20:32 25.2 °C 14.6 °C 1023.9 hPa NE 3.2 km/h 12.9 km/h 52 % 0.0 mm
20:37 25.1 °C 14.6 °C 1023.9 hPa NE 4.8 km/h 12.9 km/h 52 % 0.0 mm
20:42 24.9 °C 14.7 °C 1023.9 hPa NE 3.2 km/h 8.0 km/h 53 % 0.0 mm
20:52 24.6 °C 14.7 °C 1023.9 hPa NE 3.2 km/h 8.0 km/h 54 % 0.0 mm
20:57 24.3 °C 14.7 °C 1023.9 hPa NE 3.2 km/h 6.4 km/h 55 % 0.0 mm
21:12 23.3 °C 14.6 °C 1023.9 hPa Calm   3.2 km/h 58 % 0.0 mm
21:17 23.1 °C 14.6 °C 1023.9 hPa Calm   3.2 km/h 59 % 0.0 mm
21:22 22.9 °C 14.5 °C 1023.9 hPa Calm   3.2 km/h 59 % 0.0 mm
21:32 22.6 °C 14.4 °C 1023.9 hPa Calm   1.6 km/h 60 % 0.0 mm
21:37 22.3 °C 14.4 °C 1023.9 hPa Calm   1.6 km/h 61 % 0.0 mm
21:42 22.1 °C 14.5 °C 1024.3 hPa Calm   1.6 km/h 62 % 0.0 mm
21:47 21.9 °C 14.3 °C 1024.3 hPa Calm   1.6 km/h 62 % 0.0 mm
21:52 21.8 °C 14.2 °C 1024.3 hPa Calm   1.6 km/h 62 % 0.0 mm
21:57 21.6 °C 14.3 °C 1024.3 hPa Calm     63 % 0.0 mm
22:02 21.3 °C 14.2 °C 1024.3 hPa Calm     64 % 0.0 mm
22:07 21.1 °C 14.0 °C 1024.3 hPa Calm     64 % 0.0 mm
22:12 20.9 °C 14.1 °C 1024.3 hPa Calm     65 % 0.0 mm
22:17 20.8 °C 14.0 °C 1024.3 hPa Calm     65 % 0.0 mm
22:22 20.7 °C 14.1 °C 1024.3 hPa Calm     66 % 0.0 mm
22:32 20.6 °C 14.0 °C 1024.3 hPa Calm     66 % 0.0 mm
22:37 20.5 °C 13.9 °C 1024.3 hPa Calm     66 % 0.0 mm
22:42 20.1 °C 13.8 °C 1024.3 hPa Calm     67 % 0.0 mm
22:47 20.1 °C 14.2 °C 1024.3 hPa Calm     69 % 0.0 mm
22:52 20.0 °C 14.1 °C 1024.3 hPa Calm     69 % 0.0 mm
22:57 19.8 °C 14.2 °C 1024.3 hPa Calm     70 % 0.0 mm
23:02 19.6 °C 14.2 °C 1024.3 hPa Calm     71 % 0.0 mm
23:12 19.7 °C 14.3 °C 1024.3 hPa Calm     71 % 0.0 mm
23:17 19.6 °C 14.0 °C 1024.3 hPa Calm     70 % 0.0 mm
23:22 19.5 °C 14.1 °C 1024.3 hPa Calm     71 % 0.0 mm
23:27 19.4 °C 14.0 °C 1024.3 hPa Calm     71 % 0.0 mm
23:32 19.5 °C 14.1 °C 1024.3 hPa Calm     71 % 0.0 mm
23:37 19.6 °C 14.2 °C 1024.3 hPa Calm     71 % 0.0 mm
23:42 19.4 °C 14.2 °C 1024.3 hPa Calm     72 % 0.0 mm
23:47 19.3 °C 14.1 °C 1024.3 hPa Calm     72 % 0.0 mm
23:52 19.3 °C 14.1 °C 1024.3 hPa Calm     72 % 0.0 mm
23:57 19.2 °C 14.2 °C 1024.3 hPa Calm     73 % 0.0 mm
Meteo18
Compliments of Weather Underground - 4 mb

Script developed by  Jim McMurry - jmcmurry@mwt.net Adapted for the template by  Wim van der Kuil - Leuven-Template.eu

You find our weather info also at:

European Weather Network

Weather Underground

Equipment we use:

Weather-station
Davis Vue

Weather-program
Meteohub

Weather-server
Raspberry PI 2 B+

Provider
1 and 1

Davis Vue

Meteohub

Raspberry PI 2 B+

1 and 1